sensor_id;sensor_type;location;lat;lon;timestamp;P1;durP1;ratioP1;P2;durP2;ratioP2
3036;SDS011;1528;52.550;13.408;2023-05-29T00:01:11;6.60;;;5.53;;
3036;SDS011;1528;52.550;13.408;2023-05-29T00:03:57;9.50;;;6.53;;
3036;SDS011;1528;52.550;13.408;2023-05-29T00:06:43;5.90;;;5.27;;
3036;SDS011;1528;52.550;13.408;2023-05-29T00:09:28;7.07;;;5.60;;
3036;SDS011;1528;52.550;13.408;2023-05-29T00:12:15;7.83;;;6.17;;
3036;SDS011;1528;52.550;13.408;2023-05-29T00:15:02;6.57;;;5.17;;
3036;SDS011;1528;52.550;13.408;2023-05-29T00:17:48;6.83;;;5.53;;
3036;SDS011;1528;52.550;13.408;2023-05-29T00:20:34;8.43;;;5.40;;
3036;SDS011;1528;52.550;13.408;2023-05-29T00:23:20;5.77;;;5.10;;
3036;SDS011;1528;52.550;13.408;2023-05-29T00:26:06;7.37;;;5.30;;
3036;SDS011;1528;52.550;13.408;2023-05-29T00:28:53;8.10;;;5.47;;
3036;SDS011;1528;52.550;13.408;2023-05-29T00:31:38;11.50;;;5.10;;
3036;SDS011;1528;52.550;13.408;2023-05-29T00:34:24;7.00;;;5.60;;
3036;SDS011;1528;52.550;13.408;2023-05-29T00:37:10;5.93;;;5.10;;
3036;SDS011;1528;52.550;13.408;2023-05-29T00:39:56;7.90;;;5.07;;
3036;SDS011;1528;52.550;13.408;2023-05-29T00:42:41;10.10;;;5.70;;
3036;SDS011;1528;52.550;13.408;2023-05-29T00:45:28;8.50;;;5.33;;
3036;SDS011;1528;52.550;13.408;2023-05-29T00:48:14;6.37;;;5.77;;
3036;SDS011;1528;52.550;13.408;2023-05-29T00:51:00;8.20;;;6.00;;
3036;SDS011;1528;52.550;13.408;2023-05-29T00:53:46;7.10;;;5.47;;
3036;SDS011;1528;52.550;13.408;2023-05-29T00:56:35;8.00;;;6.10;;
3036;SDS011;1528;52.550;13.408;2023-05-29T00:59:21;8.30;;;5.30;;
3036;SDS011;1528;52.550;13.408;2023-05-29T01:02:08;7.40;;;5.70;;
3036;SDS011;1528;52.550;13.408;2023-05-29T01:04:54;8.67;;;5.70;;
3036;SDS011;1528;52.550;13.408;2023-05-29T01:07:40;8.60;;;5.33;;
3036;SDS011;1528;52.550;13.408;2023-05-29T01:10:25;6.53;;;5.73;;
3036;SDS011;1528;52.550;13.408;2023-05-29T01:13:12;7.13;;;5.30;;
3036;SDS011;1528;52.550;13.408;2023-05-29T01:16:06;8.70;;;5.90;;
3036;SDS011;1528;52.550;13.408;2023-05-29T01:19:00;6.03;;;4.63;;
3036;SDS011;1528;52.550;13.408;2023-05-29T01:21:56;7.70;;;5.90;;
3036;SDS011;1528;52.550;13.408;2023-05-29T01:24:49;5.90;;;5.30;;
3036;SDS011;1528;52.550;13.408;2023-05-29T01:27:42;7.87;;;5.90;;
3036;SDS011;1528;52.550;13.408;2023-05-29T01:30:31;6.17;;;5.27;;
3036;SDS011;1528;52.550;13.408;2023-05-29T01:33:17;9.60;;;6.53;;
3036;SDS011;1528;52.550;13.408;2023-05-29T01:36:03;6.97;;;5.73;;
3036;SDS011;1528;52.550;13.408;2023-05-29T01:38:50;10.80;;;6.60;;
3036;SDS011;1528;52.550;13.408;2023-05-29T01:41:37;7.17;;;5.77;;
3036;SDS011;1528;52.550;13.408;2023-05-29T01:44:25;7.77;;;6.07;;
3036;SDS011;1528;52.550;13.408;2023-05-29T01:47:12;8.43;;;6.67;;
3036;SDS011;1528;52.550;13.408;2023-05-29T01:49:57;7.47;;;6.30;;
3036;SDS011;1528;52.550;13.408;2023-05-29T01:52:44;9.30;;;6.03;;
3036;SDS011;1528;52.550;13.408;2023-05-29T01:55:30;9.80;;;5.93;;
3036;SDS011;1528;52.550;13.408;2023-05-29T01:58:15;10.93;;;6.30;;
3036;SDS011;1528;52.550;13.408;2023-05-29T02:01:03;6.23;;;5.60;;
3036;SDS011;1528;52.550;13.408;2023-05-29T02:03:50;8.73;;;6.13;;
3036;SDS011;1528;52.550;13.408;2023-05-29T02:06:35;7.83;;;5.67;;
3036;SDS011;1528;52.550;13.408;2023-05-29T02:09:22;6.80;;;5.10;;
3036;SDS011;1528;52.550;13.408;2023-05-29T02:12:07;6.30;;;5.70;;
3036;SDS011;1528;52.550;13.408;2023-05-29T02:14:53;8.90;;;5.77;;
3036;SDS011;1528;52.550;13.408;2023-05-29T02:17:41;6.67;;;5.07;;
3036;SDS011;1528;52.550;13.408;2023-05-29T02:20:27;8.07;;;6.40;;
3036;SDS011;1528;52.550;13.408;2023-05-29T02:23:13;7.10;;;5.33;;
3036;SDS011;1528;52.550;13.408;2023-05-29T02:25:59;6.33;;;5.33;;
3036;SDS011;1528;52.550;13.408;2023-05-29T02:28:44;8.57;;;5.83;;
3036;SDS011;1528;52.550;13.408;2023-05-29T02:31:30;7.80;;;6.23;;
3036;SDS011;1528;52.550;13.408;2023-05-29T02:34:17;7.27;;;5.00;;
3036;SDS011;1528;52.550;13.408;2023-05-29T02:37:02;7.57;;;6.53;;
3036;SDS011;1528;52.550;13.408;2023-05-29T02:39:48;7.73;;;5.40;;
3036;SDS011;1528;52.550;13.408;2023-05-29T02:42:34;9.30;;;6.10;;
3036;SDS011;1528;52.550;13.408;2023-05-29T02:45:19;6.37;;;5.37;;
3036;SDS011;1528;52.550;13.408;2023-05-29T02:48:05;6.83;;;6.17;;
3036;SDS011;1528;52.550;13.408;2023-05-29T02:50:52;6.07;;;5.47;;
3036;SDS011;1528;52.550;13.408;2023-05-29T02:53:38;7.80;;;5.87;;
3036;SDS011;1528;52.550;13.408;2023-05-29T02:56:24;7.77;;;5.83;;
3036;SDS011;1528;52.550;13.408;2023-05-29T02:59:09;8.10;;;6.47;;
3036;SDS011;1528;52.550;13.408;2023-05-29T03:01:55;8.93;;;6.40;;
3036;SDS011;1528;52.550;13.408;2023-05-29T03:04:41;8.30;;;6.60;;
3036;SDS011;1528;52.550;13.408;2023-05-29T03:07:28;8.00;;;5.87;;
3036;SDS011;1528;52.550;13.408;2023-05-29T03:10:13;7.37;;;5.93;;
3036;SDS011;1528;52.550;13.408;2023-05-29T03:13:00;7.70;;;6.03;;
3036;SDS011;1528;52.550;13.408;2023-05-29T03:15:46;6.60;;;5.80;;
3036;SDS011;1528;52.550;13.408;2023-05-29T03:18:32;6.60;;;6.00;;
3036;SDS011;1528;52.550;13.408;2023-05-29T03:21:17;6.70;;;5.67;;
3036;SDS011;1528;52.550;13.408;2023-05-29T03:24:05;6.27;;;5.67;;
3036;SDS011;1528;52.550;13.408;2023-05-29T03:26:51;6.23;;;5.60;;
3036;SDS011;1528;52.550;13.408;2023-05-29T03:29:36;6.70;;;6.03;;
3036;SDS011;1528;52.550;13.408;2023-05-29T03:32:22;6.50;;;5.90;;
3036;SDS011;1528;52.550;13.408;2023-05-29T03:35:08;6.27;;;5.67;;
3036;SDS011;1528;52.550;13.408;2023-05-29T03:37:53;6.20;;;5.60;;
3036;SDS011;1528;52.550;13.408;2023-05-29T03:40:40;7.63;;;6.47;;
3036;SDS011;1528;52.550;13.408;2023-05-29T03:43:25;9.50;;;5.97;;
3036;SDS011;1528;52.550;13.408;2023-05-29T03:46:11;6.60;;;5.93;;
3036;SDS011;1528;52.550;13.408;2023-05-29T03:48:56;6.70;;;5.50;;
3036;SDS011;1528;52.550;13.408;2023-05-29T03:51:42;8.80;;;6.03;;
3036;SDS011;1528;52.550;13.408;2023-05-29T03:54:27;5.43;;;5.03;;
3036;SDS011;1528;52.550;13.408;2023-05-29T03:57:14;8.83;;;5.50;;
3036;SDS011;1528;52.550;13.408;2023-05-29T04:00:00;6.33;;;5.37;;
3036;SDS011;1528;52.550;13.408;2023-05-29T04:02:47;6.90;;;4.87;;
3036;SDS011;1528;52.550;13.408;2023-05-29T04:05:33;7.57;;;5.20;;
3036;SDS011;1528;52.550;13.408;2023-05-29T04:08:18;6.37;;;5.37;;
3036;SDS011;1528;52.550;13.408;2023-05-29T04:11:04;6.07;;;5.23;;
3036;SDS011;1528;52.550;13.408;2023-05-29T04:13:51;8.47;;;5.10;;
3036;SDS011;1528;52.550;13.408;2023-05-29T04:16:36;5.77;;;5.23;;
3036;SDS011;1528;52.550;13.408;2023-05-29T04:19:22;6.70;;;5.30;;
3036;SDS011;1528;52.550;13.408;2023-05-29T04:22:07;6.23;;;5.47;;
3036;SDS011;1528;52.550;13.408;2023-05-29T04:24:53;7.07;;;5.10;;
3036;SDS011;1528;52.550;13.408;2023-05-29T04:27:38;6.17;;;5.10;;
3036;SDS011;1528;52.550;13.408;2023-05-29T04:30:26;6.97;;;5.47;;
3036;SDS011;1528;52.550;13.408;2023-05-29T04:33:12;5.53;;;5.07;;
3036;SDS011;1528;52.550;13.408;2023-05-29T04:35:57;5.43;;;4.93;;
3036;SDS011;1528;52.550;13.408;2023-05-29T04:38:44;6.80;;;4.93;;
3036;SDS011;1528;52.550;13.408;2023-05-29T04:41:31;6.27;;;4.90;;
3036;SDS011;1528;52.550;13.408;2023-05-29T04:44:16;6.20;;;5.60;;
3036;SDS011;1528;52.550;13.408;2023-05-29T04:47:03;6.67;;;5.40;;
3036;SDS011;1528;52.550;13.408;2023-05-29T04:49:49;6.27;;;5.73;;
3036;SDS011;1528;52.550;13.408;2023-05-29T04:52:35;5.40;;;4.90;;
3036;SDS011;1528;52.550;13.408;2023-05-29T04:55:21;7.40;;;5.47;;
3036;SDS011;1528;52.550;13.408;2023-05-29T04:58:07;5.77;;;5.23;;
3036;SDS011;1528;52.550;13.408;2023-05-29T05:00:55;5.90;;;4.97;;
3036;SDS011;1528;52.550;13.408;2023-05-29T05:03:43;5.40;;;4.90;;
3036;SDS011;1528;52.550;13.408;2023-05-29T05:06:28;6.53;;;5.50;;
3036;SDS011;1528;52.550;13.408;2023-05-29T05:09:14;4.90;;;4.43;;
3036;SDS011;1528;52.550;13.408;2023-05-29T05:12:01;5.63;;;5.10;;
3036;SDS011;1528;52.550;13.408;2023-05-29T05:14:46;6.63;;;4.63;;
3036;SDS011;1528;52.550;13.408;2023-05-29T05:17:32;4.80;;;4.30;;
3036;SDS011;1528;52.550;13.408;2023-05-29T05:20:19;5.77;;;4.60;;
3036;SDS011;1528;52.550;13.408;2023-05-29T05:23:04;6.13;;;4.50;;
3036;SDS011;1528;52.550;13.408;2023-05-29T05:25:50;4.50;;;4.10;;
3036;SDS011;1528;52.550;13.408;2023-05-29T05:28:35;5.03;;;4.33;;
3036;SDS011;1528;52.550;13.408;2023-05-29T05:31:21;4.20;;;3.80;;
3036;SDS011;1528;52.550;13.408;2023-05-29T05:34:08;4.63;;;4.23;;
3036;SDS011;1528;52.550;13.408;2023-05-29T05:36:55;4.40;;;4.00;;
3036;SDS011;1528;52.550;13.408;2023-05-29T05:39:40;3.60;;;3.30;;
3036;SDS011;1528;52.550;13.408;2023-05-29T05:42:27;5.67;;;3.70;;
3036;SDS011;1528;52.550;13.408;2023-05-29T05:45:12;5.50;;;4.07;;
3036;SDS011;1528;52.550;13.408;2023-05-29T05:47:58;5.33;;;4.80;;
3036;SDS011;1528;52.550;13.408;2023-05-29T05:50:44;6.80;;;4.43;;
3036;SDS011;1528;52.550;13.408;2023-05-29T05:53:31;4.50;;;4.10;;
3036;SDS011;1528;52.550;13.408;2023-05-29T05:56:17;4.23;;;3.83;;
3036;SDS011;1528;52.550;13.408;2023-05-29T05:59:02;4.30;;;3.90;;
3036;SDS011;1528;52.550;13.408;2023-05-29T06:01:48;3.57;;;3.20;;
3036;SDS011;1528;52.550;13.408;2023-05-29T06:04:34;3.83;;;3.40;;
3036;SDS011;1528;52.550;13.408;2023-05-29T06:07:19;4.23;;;3.63;;
3036;SDS011;1528;52.550;13.408;2023-05-29T06:10:07;3.80;;;3.40;;
3036;SDS011;1528;52.550;13.408;2023-05-29T06:12:52;4.03;;;3.63;;
3036;SDS011;1528;52.550;13.408;2023-05-29T06:15:38;3.83;;;3.53;;
3036;SDS011;1528;52.550;13.408;2023-05-29T06:18:24;4.30;;;3.50;;
3036;SDS011;1528;52.550;13.408;2023-05-29T06:21:09;3.90;;;3.50;;
3036;SDS011;1528;52.550;13.408;2023-05-29T06:23:56;4.17;;;3.70;;
3036;SDS011;1528;52.550;13.408;2023-05-29T06:26:43;6.90;;;4.07;;
3036;SDS011;1528;52.550;13.408;2023-05-29T06:29:29;3.70;;;3.40;;
3036;SDS011;1528;52.550;13.408;2023-05-29T06:32:15;4.47;;;3.80;;
3036;SDS011;1528;52.550;13.408;2023-05-29T06:35:01;3.70;;;3.20;;
3036;SDS011;1528;52.550;13.408;2023-05-29T06:37:46;4.47;;;3.10;;
3036;SDS011;1528;52.550;13.408;2023-05-29T06:40:32;4.20;;;3.80;;
3036;SDS011;1528;52.550;13.408;2023-05-29T06:43:19;3.73;;;3.13;;
3036;SDS011;1528;52.550;13.408;2023-05-29T06:46:05;4.13;;;3.70;;
3036;SDS011;1528;52.550;13.408;2023-05-29T06:48:50;4.10;;;3.70;;
3036;SDS011;1528;52.550;13.408;2023-05-29T06:51:36;4.43;;;3.47;;
3036;SDS011;1528;52.550;13.408;2023-05-29T06:54:22;5.63;;;3.90;;
3036;SDS011;1528;52.550;13.408;2023-05-29T06:57:07;3.97;;;3.57;;
3036;SDS011;1528;52.550;13.408;2023-05-29T06:59:54;4.53;;;3.60;;
3036;SDS011;1528;52.550;13.408;2023-05-29T07:02:40;4.90;;;3.53;;
3036;SDS011;1528;52.550;13.408;2023-05-29T07:05:26;4.37;;;3.97;;
3036;SDS011;1528;52.550;13.408;2023-05-29T07:08:12;5.63;;;4.00;;
3036;SDS011;1528;52.550;13.408;2023-05-29T07:10:58;3.50;;;3.00;;
3036;SDS011;1528;52.550;13.408;2023-05-29T07:13:44;4.33;;;3.07;;
3036;SDS011;1528;52.550;13.408;2023-05-29T07:16:31;3.23;;;2.93;;
3036;SDS011;1528;52.550;13.408;2023-05-29T07:19:16;3.50;;;3.20;;
3036;SDS011;1528;52.550;13.408;2023-05-29T07:22:02;3.83;;;3.53;;
3036;SDS011;1528;52.550;13.408;2023-05-29T07:24:47;3.83;;;3.20;;
3036;SDS011;1528;52.550;13.408;2023-05-29T07:27:33;3.50;;;3.20;;
3036;SDS011;1528;52.550;13.408;2023-05-29T07:30:19;3.20;;;2.90;;
3036;SDS011;1528;52.550;13.408;2023-05-29T07:33:06;3.60;;;3.30;;
3036;SDS011;1528;52.550;13.408;2023-05-29T07:35:51;3.90;;;2.70;;
3036;SDS011;1528;52.550;13.408;2023-05-29T07:38:37;6.83;;;5.90;;
3036;SDS011;1528;52.550;13.408;2023-05-29T07:41:23;4.20;;;3.80;;
3036;SDS011;1528;52.550;13.408;2023-05-29T07:44:10;4.43;;;3.00;;
3036;SDS011;1528;52.550;13.408;2023-05-29T07:46:56;4.50;;;3.10;;
3036;SDS011;1528;52.550;13.408;2023-05-29T07:49:43;3.00;;;2.80;;
3036;SDS011;1528;52.550;13.408;2023-05-29T07:52:29;4.40;;;3.70;;
3036;SDS011;1528;52.550;13.408;2023-05-29T07:55:15;4.60;;;3.40;;
3036;SDS011;1528;52.550;13.408;2023-05-29T07:58:01;5.17;;;3.80;;
3036;SDS011;1528;52.550;13.408;2023-05-29T08:00:47;3.63;;;3.33;;
3036;SDS011;1528;52.550;13.408;2023-05-29T08:03:33;4.13;;;3.53;;
3036;SDS011;1528;52.550;13.408;2023-05-29T08:06:20;3.80;;;3.50;;
3036;SDS011;1528;52.550;13.408;2023-05-29T08:09:06;3.37;;;3.00;;
3036;SDS011;1528;52.550;13.408;2023-05-29T08:11:51;4.33;;;3.50;;
3036;SDS011;1528;52.550;13.408;2023-05-29T08:14:37;3.30;;;3.00;;
3036;SDS011;1528;52.550;13.408;2023-05-29T08:17:23;5.90;;;3.40;;
3036;SDS011;1528;52.550;13.408;2023-05-29T08:20:09;3.50;;;3.20;;
3036;SDS011;1528;52.550;13.408;2023-05-29T08:22:57;3.10;;;2.80;;
3036;SDS011;1528;52.550;13.408;2023-05-29T08:25:42;3.67;;;3.27;;
3036;SDS011;1528;52.550;13.408;2023-05-29T08:28:28;3.83;;;3.53;;
3036;SDS011;1528;52.550;13.408;2023-05-29T08:31:14;3.50;;;3.20;;
3036;SDS011;1528;52.550;13.408;2023-05-29T08:33:59;3.40;;;3.10;;
3036;SDS011;1528;52.550;13.408;2023-05-29T08:36:45;4.37;;;3.30;;
3036;SDS011;1528;52.550;13.408;2023-05-29T08:39:32;5.47;;;3.20;;
3036;SDS011;1528;52.550;13.408;2023-05-29T08:42:20;3.50;;;3.10;;
3036;SDS011;1528;52.550;13.408;2023-05-29T08:45:09;3.93;;;3.33;;
3036;SDS011;1528;52.550;13.408;2023-05-29T08:47:59;3.70;;;3.40;;
3036;SDS011;1528;52.550;13.408;2023-05-29T08:50:46;4.53;;;4.07;;
3036;SDS011;1528;52.550;13.408;2023-05-29T08:53:31;5.37;;;3.80;;
3036;SDS011;1528;52.550;13.408;2023-05-29T08:56:18;4.67;;;4.27;;
3036;SDS011;1528;52.550;13.408;2023-05-29T08:59:06;5.13;;;3.70;;
3036;SDS011;1528;52.550;13.408;2023-05-29T09:01:52;4.27;;;3.87;;
3036;SDS011;1528;52.550;13.408;2023-05-29T09:04:38;4.23;;;3.83;;
3036;SDS011;1528;52.550;13.408;2023-05-29T09:07:29;4.47;;;3.70;;
3036;SDS011;1528;52.550;13.408;2023-05-29T09:10:14;4.97;;;4.50;;
3036;SDS011;1528;52.550;13.408;2023-05-29T09:13:01;3.90;;;3.60;;
3036;SDS011;1528;52.550;13.408;2023-05-29T09:15:47;4.77;;;4.10;;
3036;SDS011;1528;52.550;13.408;2023-05-29T09:18:32;4.20;;;3.90;;
3036;SDS011;1528;52.550;13.408;2023-05-29T09:21:25;4.20;;;3.77;;
3036;SDS011;1528;52.550;13.408;2023-05-29T09:24:13;4.07;;;3.67;;
3036;SDS011;1528;52.550;13.408;2023-05-29T09:26:59;4.47;;;4.17;;
3036;SDS011;1528;52.550;13.408;2023-05-29T09:29:48;5.03;;;4.07;;
3036;SDS011;1528;52.550;13.408;2023-05-29T09:32:35;4.23;;;3.80;;
3036;SDS011;1528;52.550;13.408;2023-05-29T09:35:20;4.60;;;4.07;;
3036;SDS011;1528;52.550;13.408;2023-05-29T09:38:06;3.90;;;3.60;;
3036;SDS011;1528;52.550;13.408;2023-05-29T09:40:53;4.73;;;4.33;;
3036;SDS011;1528;52.550;13.408;2023-05-29T09:43:44;4.57;;;4.17;;
3036;SDS011;1528;52.550;13.408;2023-05-29T09:46:34;6.80;;;4.27;;
3036;SDS011;1528;52.550;13.408;2023-05-29T09:49:20;4.73;;;3.80;;
3036;SDS011;1528;52.550;13.408;2023-05-29T09:52:07;4.53;;;4.13;;
3036;SDS011;1528;52.550;13.408;2023-05-29T09:54:53;6.10;;;4.47;;
3036;SDS011;1528;52.550;13.408;2023-05-29T09:57:40;4.03;;;3.70;;
3036;SDS011;1528;52.550;13.408;2023-05-29T10:00:26;3.93;;;3.70;;
3036;SDS011;1528;52.550;13.408;2023-05-29T10:03:15;3.67;;;3.37;;
3036;SDS011;1528;52.550;13.408;2023-05-29T10:06:01;4.40;;;4.10;;
3036;SDS011;1528;52.550;13.408;2023-05-29T10:08:47;4.37;;;3.97;;
3036;SDS011;1528;52.550;13.408;2023-05-29T10:11:37;4.10;;;3.70;;
3036;SDS011;1528;52.550;13.408;2023-05-29T10:14:25;4.40;;;3.80;;
3036;SDS011;1528;52.550;13.408;2023-05-29T10:17:15;4.40;;;3.97;;
3036;SDS011;1528;52.550;13.408;2023-05-29T10:20:04;5.00;;;3.33;;
3036;SDS011;1528;52.550;13.408;2023-05-29T10:22:54;5.17;;;4.67;;
3036;SDS011;1528;52.550;13.408;2023-05-29T10:25:41;4.37;;;3.80;;
3036;SDS011;1528;52.550;13.408;2023-05-29T10:28:31;4.90;;;4.50;;
3036;SDS011;1528;52.550;13.408;2023-05-29T10:31:18;4.03;;;3.70;;
3036;SDS011;1528;52.550;13.408;2023-05-29T10:34:13;4.50;;;4.10;;
3036;SDS011;1528;52.550;13.408;2023-05-29T10:37:08;6.03;;;4.30;;
3036;SDS011;1528;52.550;13.408;2023-05-29T10:40:05;4.27;;;3.90;;
3036;SDS011;1528;52.550;13.408;2023-05-29T10:42:55;4.97;;;4.50;;
3036;SDS011;1528;52.550;13.408;2023-05-29T10:45:49;3.90;;;3.60;;
3036;SDS011;1528;52.550;13.408;2023-05-29T10:48:39;5.43;;;4.30;;
3036;SDS011;1528;52.550;13.408;2023-05-29T10:51:26;4.23;;;3.93;;
3036;SDS011;1528;52.550;13.408;2023-05-29T10:54:16;3.77;;;3.47;;
3036;SDS011;1528;52.550;13.408;2023-05-29T10:57:07;4.23;;;3.90;;
3036;SDS011;1528;52.550;13.408;2023-05-29T10:59:57;4.10;;;3.80;;
3036;SDS011;1528;52.550;13.408;2023-05-29T11:02:44;4.80;;;4.30;;
3036;SDS011;1528;52.550;13.408;2023-05-29T11:05:30;4.60;;;4.20;;
3036;SDS011;1528;52.550;13.408;2023-05-29T11:08:16;4.10;;;3.80;;
3036;SDS011;1528;52.550;13.408;2023-05-29T11:11:15;4.80;;;4.20;;
3036;SDS011;1528;52.550;13.408;2023-05-29T11:14:14;3.93;;;3.50;;
3036;SDS011;1528;52.550;13.408;2023-05-29T11:17:00;4.40;;;4.00;;
3036;SDS011;1528;52.550;13.408;2023-05-29T11:19:45;4.17;;;3.87;;
3036;SDS011;1528;52.550;13.408;2023-05-29T11:22:34;5.10;;;4.60;;
3036;SDS011;1528;52.550;13.408;2023-05-29T11:25:36;6.43;;;4.17;;
3036;SDS011;1528;52.550;13.408;2023-05-29T11:28:23;4.20;;;3.70;;
3036;SDS011;1528;52.550;13.408;2023-05-29T11:31:09;3.73;;;3.43;;
3036;SDS011;1528;52.550;13.408;2023-05-29T11:33:55;3.70;;;3.40;;
3036;SDS011;1528;52.550;13.408;2023-05-29T11:36:44;4.23;;;3.83;;
3036;SDS011;1528;52.550;13.408;2023-05-29T11:39:35;4.13;;;3.70;;
3036;SDS011;1528;52.550;13.408;2023-05-29T11:42:21;3.60;;;3.30;;
3036;SDS011;1528;52.550;13.408;2023-05-29T11:45:12;4.30;;;3.90;;
3036;SDS011;1528;52.550;13.408;2023-05-29T11:47:59;4.80;;;3.80;;
3036;SDS011;1528;52.550;13.408;2023-05-29T11:50:45;4.50;;;3.80;;
3036;SDS011;1528;52.550;13.408;2023-05-29T11:53:30;4.73;;;4.33;;
3036;SDS011;1528;52.550;13.408;2023-05-29T11:56:16;4.20;;;3.80;;
3036;SDS011;1528;52.550;13.408;2023-05-29T11:59:02;3.57;;;3.30;;
3036;SDS011;1528;52.550;13.408;2023-05-29T12:01:52;4.50;;;4.07;;
3036;SDS011;1528;52.550;13.408;2023-05-29T12:04:38;4.00;;;3.70;;
3036;SDS011;1528;52.550;13.408;2023-05-29T12:07:23;4.60;;;4.20;;
3036;SDS011;1528;52.550;13.408;2023-05-29T12:10:09;4.20;;;3.90;;
3036;SDS011;1528;52.550;13.408;2023-05-29T12:12:55;4.70;;;4.30;;
3036;SDS011;1528;52.550;13.408;2023-05-29T12:15:43;4.53;;;4.23;;
3036;SDS011;1528;52.550;13.408;2023-05-29T12:18:30;4.90;;;4.50;;
3036;SDS011;1528;52.550;13.408;2023-05-29T12:21:17;5.00;;;4.70;;
3036;SDS011;1528;52.550;13.408;2023-05-29T12:24:04;4.43;;;4.13;;
3036;SDS011;1528;52.550;13.408;2023-05-29T12:26:50;5.10;;;4.70;;
3036;SDS011;1528;52.550;13.408;2023-05-29T12:29:36;4.60;;;4.20;;
3036;SDS011;1528;52.550;13.408;2023-05-29T12:32:21;5.03;;;4.63;;
3036;SDS011;1528;52.550;13.408;2023-05-29T12:35:12;4.77;;;4.47;;
3036;SDS011;1528;52.550;13.408;2023-05-29T12:37:59;4.30;;;4.00;;
3036;SDS011;1528;52.550;13.408;2023-05-29T12:40:47;6.10;;;4.13;;
3036;SDS011;1528;52.550;13.408;2023-05-29T12:43:33;4.83;;;4.40;;
3036;SDS011;1528;52.550;13.408;2023-05-29T12:46:19;4.40;;;3.80;;
3036;SDS011;1528;52.550;13.408;2023-05-29T12:49:11;5.30;;;4.90;;
3036;SDS011;1528;52.550;13.408;2023-05-29T12:52:04;5.17;;;4.77;;
3036;SDS011;1528;52.550;13.408;2023-05-29T12:54:51;4.60;;;4.30;;
3036;SDS011;1528;52.550;13.408;2023-05-29T12:57:36;4.23;;;4.03;;
3036;SDS011;1528;52.550;13.408;2023-05-29T13:00:23;4.83;;;4.43;;
3036;SDS011;1528;52.550;13.408;2023-05-29T13:03:09;4.53;;;4.23;;
3036;SDS011;1528;52.550;13.408;2023-05-29T13:05:55;4.80;;;4.50;;
3036;SDS011;1528;52.550;13.408;2023-05-29T13:08:42;4.70;;;4.40;;
3036;SDS011;1528;52.550;13.408;2023-05-29T13:11:28;4.70;;;4.30;;
3036;SDS011;1528;52.550;13.408;2023-05-29T13:14:13;5.00;;;4.60;;
3036;SDS011;1528;52.550;13.408;2023-05-29T13:16:59;5.00;;;4.70;;
3036;SDS011;1528;52.550;13.408;2023-05-29T13:19:44;5.70;;;5.30;;
3036;SDS011;1528;52.550;13.408;2023-05-29T13:22:30;5.47;;;5.07;;
3036;SDS011;1528;52.550;13.408;2023-05-29T13:25:17;6.20;;;5.70;;
3036;SDS011;1528;52.550;13.408;2023-05-29T13:28:04;5.40;;;5.00;;
3036;SDS011;1528;52.550;13.408;2023-05-29T13:30:50;3.73;;;3.43;;
3036;SDS011;1528;52.550;13.408;2023-05-29T13:33:36;5.20;;;4.90;;
3036;SDS011;1528;52.550;13.408;2023-05-29T13:36:22;5.50;;;5.20;;
3036;SDS011;1528;52.550;13.408;2023-05-29T13:39:07;5.53;;;5.23;;
3036;SDS011;1528;52.550;13.408;2023-05-29T13:41:54;4.90;;;4.60;;
3036;SDS011;1528;52.550;13.408;2023-05-29T13:44:40;6.77;;;6.27;;
3036;SDS011;1528;52.550;13.408;2023-05-29T13:47:26;5.70;;;5.30;;
3036;SDS011;1528;52.550;13.408;2023-05-29T13:50:12;6.40;;;6.10;;
3036;SDS011;1528;52.550;13.408;2023-05-29T13:52:57;5.40;;;5.10;;
3036;SDS011;1528;52.550;13.408;2023-05-29T13:55:43;6.20;;;5.77;;
3036;SDS011;1528;52.550;13.408;2023-05-29T13:58:30;5.00;;;4.60;;
3036;SDS011;1528;52.550;13.408;2023-05-29T14:01:16;5.70;;;5.40;;
3036;SDS011;1528;52.550;13.408;2023-05-29T14:04:03;5.50;;;5.20;;
3036;SDS011;1528;52.550;13.408;2023-05-29T14:06:48;6.17;;;5.80;;
3036;SDS011;1528;52.550;13.408;2023-05-29T14:09:34;5.63;;;5.17;;
3036;SDS011;1528;52.550;13.408;2023-05-29T14:12:20;5.37;;;4.97;;
3036;SDS011;1528;52.550;13.408;2023-05-29T14:15:08;6.00;;;5.70;;
3036;SDS011;1528;52.550;13.408;2023-05-29T14:17:54;6.33;;;5.93;;
3036;SDS011;1528;52.550;13.408;2023-05-29T14:20:40;4.73;;;4.43;;
3036;SDS011;1528;52.550;13.408;2023-05-29T14:23:31;5.20;;;4.90;;
3036;SDS011;1528;52.550;13.408;2023-05-29T14:26:18;4.80;;;4.47;;
3036;SDS011;1528;52.550;13.408;2023-05-29T14:29:03;5.20;;;4.90;;
3036;SDS011;1528;52.550;13.408;2023-05-29T14:31:51;4.73;;;4.43;;
3036;SDS011;1528;52.550;13.408;2023-05-29T14:34:37;5.20;;;4.80;;
3036;SDS011;1528;52.550;13.408;2023-05-29T14:37:23;6.43;;;6.17;;
3036;SDS011;1528;52.550;13.408;2023-05-29T14:40:09;5.87;;;5.47;;
3036;SDS011;1528;52.550;13.408;2023-05-29T14:42:55;7.10;;;6.70;;
3036;SDS011;1528;52.550;13.408;2023-05-29T14:45:40;5.63;;;5.23;;
3036;SDS011;1528;52.550;13.408;2023-05-29T14:48:27;6.23;;;5.93;;
3036;SDS011;1528;52.550;13.408;2023-05-29T14:51:13;5.70;;;5.40;;
3036;SDS011;1528;52.550;13.408;2023-05-29T14:53:58;6.60;;;6.00;;
3036;SDS011;1528;52.550;13.408;2023-05-29T14:56:44;6.07;;;5.63;;
3036;SDS011;1528;52.550;13.408;2023-05-29T14:59:30;6.37;;;5.87;;
3036;SDS011;1528;52.550;13.408;2023-05-29T15:02:15;6.73;;;5.47;;
3036;SDS011;1528;52.550;13.408;2023-05-29T15:05:03;5.17;;;4.77;;
3036;SDS011;1528;52.550;13.408;2023-05-29T15:07:49;5.50;;;5.07;;
3036;SDS011;1528;52.550;13.408;2023-05-29T15:10:35;4.97;;;4.57;;
3036;SDS011;1528;52.550;13.408;2023-05-29T15:13:20;6.47;;;3.83;;
3036;SDS011;1528;52.550;13.408;2023-05-29T15:16:07;6.37;;;4.93;;
3036;SDS011;1528;52.550;13.408;2023-05-29T15:18:53;6.83;;;4.60;;
3036;SDS011;1528;52.550;13.408;2023-05-29T15:21:40;5.17;;;4.17;;
3036;SDS011;1528;52.550;13.408;2023-05-29T15:24:25;5.50;;;4.20;;
3036;SDS011;1528;52.550;13.408;2023-05-29T15:27:11;4.83;;;3.40;;
3036;SDS011;1528;52.550;13.408;2023-05-29T15:30:07;4.80;;;4.40;;
3036;SDS011;1528;52.550;13.408;2023-05-29T15:32:53;6.70;;;4.30;;
3036;SDS011;1528;52.550;13.408;2023-05-29T15:35:39;4.73;;;4.27;;
3036;SDS011;1528;52.550;13.408;2023-05-29T15:38:27;3.60;;;3.40;;
3036;SDS011;1528;52.550;13.408;2023-05-29T15:41:15;4.23;;;3.80;;
3036;SDS011;1528;52.550;13.408;2023-05-29T15:44:01;4.50;;;4.10;;
3036;SDS011;1528;52.550;13.408;2023-05-29T15:46:47;4.73;;;4.33;;
3036;SDS011;1528;52.550;13.408;2023-05-29T15:49:32;4.47;;;4.10;;
3036;SDS011;1528;52.550;13.408;2023-05-29T15:52:18;4.37;;;4.00;;
3036;SDS011;1528;52.550;13.408;2023-05-29T15:55:06;3.93;;;3.53;;
3036;SDS011;1528;52.550;13.408;2023-05-29T15:57:52;4.63;;;4.17;;
3036;SDS011;1528;52.550;13.408;2023-05-29T16:00:37;4.57;;;4.17;;
3036;SDS011;1528;52.550;13.408;2023-05-29T16:03:23;6.40;;;4.20;;
3036;SDS011;1528;52.550;13.408;2023-05-29T16:06:10;4.30;;;3.83;;
3036;SDS011;1528;52.550;13.408;2023-05-29T16:08:56;4.70;;;4.17;;
3036;SDS011;1528;52.550;13.408;2023-05-29T16:11:43;4.67;;;4.37;;
3036;SDS011;1528;52.550;13.408;2023-05-29T16:14:28;6.50;;;5.20;;
3036;SDS011;1528;52.550;13.408;2023-05-29T16:17:14;5.30;;;4.53;;
3036;SDS011;1528;52.550;13.408;2023-05-29T16:20:00;5.73;;;4.90;;
3036;SDS011;1528;52.550;13.408;2023-05-29T16:22:45;5.93;;;4.83;;
3036;SDS011;1528;52.550;13.408;2023-05-29T16:25:31;4.97;;;4.57;;
3036;SDS011;1528;52.550;13.408;2023-05-29T16:28:18;6.10;;;5.33;;
3036;SDS011;1528;52.550;13.408;2023-05-29T16:31:03;5.30;;;4.90;;
3036;SDS011;1528;52.550;13.408;2023-05-29T16:33:49;4.80;;;4.40;;
3036;SDS011;1528;52.550;13.408;2023-05-29T16:36:34;6.23;;;5.63;;
3036;SDS011;1528;52.550;13.408;2023-05-29T16:39:20;7.03;;;6.43;;
3036;SDS011;1528;52.550;13.408;2023-05-29T16:42:09;5.87;;;5.27;;
3036;SDS011;1528;52.550;13.408;2023-05-29T16:44:56;4.70;;;4.30;;
3036;SDS011;1528;52.550;13.408;2023-05-29T16:47:42;5.10;;;4.50;;
3036;SDS011;1528;52.550;13.408;2023-05-29T16:50:27;5.43;;;4.40;;
3036;SDS011;1528;52.550;13.408;2023-05-29T16:53:13;7.63;;;5.00;;
3036;SDS011;1528;52.550;13.408;2023-05-29T16:55:59;5.67;;;4.30;;
3036;SDS011;1528;52.550;13.408;2023-05-29T16:58:44;4.90;;;4.40;;